Time;durP1;ratioP1;P1;durP2;ratioP2;P2;SDS_P1;SDS_P2;PMS_P1;PMS_P2;Temp;Humidity;BMP_temperature;BMP_pressure;BME280_temperature;BME280_humidity;BME280_pressure;Samples;Min_cycle;Max_cycle;Signal;HPM_P1;HPM_P2
2022/06/16 00:00:05;;;;;;;;;;;22.50;43.10;;;;;;5054252;28;19908;-69
2022/06/16 00:02:30;;;;;;;;;;;22.50;42.90;;;;;;5053755;28;19917;-70
2022/06/16 00:04:56;;;;;;;;;;;22.50;42.70;;;;;;5054168;28;19909;-69
2022/06/16 00:07:23;;;;;;;;;;;22.60;42.40;;;;;;5054082;28;19955;-70
2022/06/16 00:09:49;;;;;;;;;;;22.50;41.90;;;;;;5052880;28;20367;-70
2022/06/16 00:12:15;;;;;;;;;;;22.40;42.50;;;;;;5053949;28;20436;-70
2022/06/16 00:14:41;;;;;;;;;;;22.40;42.40;;;;;;5052949;28;19908;-70
2022/06/16 00:17:06;;;;;;;;;;;22.40;42.90;;;;;;5053710;28;19913;-70
2022/06/16 00:19:32;;;;;;;;;;;22.40;43.10;;;;;;5053613;28;19911;-70
2022/06/16 00:21:58;;;;;;;;;;;22.30;43.30;;;;;;5053927;28;20007;-69
2022/06/16 00:24:26;;;;;;;;;;;22.30;43.10;;;;;;5054291;28;19904;-71
2022/06/16 00:26:52;;;;;;;;;;;22.20;42.70;;;;;;5053870;28;19916;-70
2022/06/16 00:29:18;;;;;;;;;;;22.10;42.30;;;;;;5053683;28;19919;-70
2022/06/16 00:31:43;;;;;;;;;;;22.00;42.40;;;;;;5053957;28;19916;-70
2022/06/16 00:34:09;;;;;;;;;;;21.90;42.80;;;;;;5053711;28;19905;-70
2022/06/16 00:36:36;;;;;;;;;;;21.80;43.10;;;;;;5052496;28;19911;-70
2022/06/16 00:39:02;;;;;;;;;;;21.80;43.20;;;;;;5054086;28;19905;-70
2022/06/16 00:41:27;;;;;;;;;;;21.80;44.10;;;;;;5053807;28;20381;-71
2022/06/16 00:43:57;;;;;;;;;;;21.80;43.10;;;;;;5053703;28;19940;-71
2022/06/16 00:46:23;;;;;;;;;;;21.70;43.50;;;;;;5052333;28;19912;-71
2022/06/16 00:48:51;;;;;;;;;;;21.70;43.80;;;;;;5053198;28;19912;-71
2022/06/16 00:51:36;;;;;;;;;;;21.70;43.90;;;;;;5054106;28;20378;-71
2022/06/16 00:54:06;;;;;;;;;;;21.80;43.80;;;;;;5054314;28;19905;-71
2022/06/16 00:56:32;;;;;;;;;;;21.90;43.80;;;;;;5057177;28;19986;-70
2022/06/16 00:58:58;;;;;;;;;;;22.00;43.50;;;;;;5057505;28;19905;-71
2022/06/16 01:01:25;;;;;;;;;;;22.00;43.50;;;;;;5056631;28;20305;-68
2022/06/16 01:06:35;;;;;;;;;;;21.90;44.40;;;;;;5057300;28;19963;-70
2022/06/16 01:09:02;;;;;;;;;;;21.90;43.80;;;;;;5057066;28;19940;-70
2022/06/16 01:14:26;;;;;;;;;;;21.90;43.80;;;;;;5056870;28;20270;-71
2022/06/16 01:16:54;;;;;;;;;;;22.00;43.80;;;;;;5056573;28;19905;-69
2022/06/16 01:19:23;;;;;;;;;;;22.00;43.90;;;;;;5057376;28;19905;-70
2022/06/16 01:21:55;;;;;;;;;;;22.00;43.90;;;;;;5057013;28;19905;-71
2022/06/16 01:24:50;;;;;;;;;;;22.00;43.90;;;;;;5055525;28;19996;-71
2022/06/16 01:27:19;;;;;;;;;;;22.00;44.10;;;;;;5054432;28;19943;-70
2022/06/16 01:29:44;;;;;;;;;;;22.00;44.10;;;;;;5056851;28;20012;-71
2022/06/16 01:32:23;;;;;;;;;;;22.00;44.10;;;;;;5056564;28;19948;-70
2022/06/16 01:34:55;;;;;;;;;;;22.00;44.50;;;;;;5056340;28;20426;-71
2022/06/16 01:37:26;;;;;;;;;;;22.00;44.60;;;;;;5056529;28;19904;-70
2022/06/16 01:40:09;;;;;;;;;;;21.90;44.00;;;;;;5056729;28;19905;-70
2022/06/16 01:42:39;;;;;;;;;;;21.80;44.20;;;;;;5056433;28;19905;-70
2022/06/16 01:45:43;;;;;;;;;;;21.80;43.80;;;;;;5055162;28;19905;-70
2022/06/16 01:48:11;;;;;;;;;;;21.70;44.50;;;;;;5054025;28;19905;-70
2022/06/16 01:50:41;;;;;;;;;;;21.70;44.40;;;;;;5037407;28;19958;-70
2022/06/16 01:53:08;;;;;;;;;;;21.70;44.10;;;;;;5054841;28;19908;-70
2022/06/16 01:55:37;;;;;;;;;;;21.80;43.90;;;;;;5056240;28;19912;-71
2022/06/16 01:58:06;;;;;;;;;;;21.70;43.90;;;;;;5037359;28;19909;-70
2022/06/16 02:00:32;;;;;;;;;;;21.70;43.90;;;;;;5041272;28;19909;-70
2022/06/16 02:02:57;;;;;;;;;;;21.60;44.60;;;;;;5043241;28;19909;-70
2022/06/16 02:05:26;;;;;;;;;;;21.60;45.00;;;;;;5044528;28;20356;-70
2022/06/16 02:07:55;;;;;;;;;;;21.50;44.50;;;;;;5043211;28;19916;-71
2022/06/16 02:10:25;;;;;;;;;;;21.50;45.70;;;;;;5044175;28;20260;-70
2022/06/16 02:12:58;;;;;;;;;;;21.40;44.80;;;;;;5045478;28;20043;-71
2022/06/16 02:15:28;;;;;;;;;;;21.40;44.80;;;;;;5043960;28;19905;-68
2022/06/16 02:17:55;;;;;;;;;;;21.40;45.00;;;;;;5040251;28;20359;-70
2022/06/16 02:20:20;;;;;;;;;;;21.50;44.10;;;;;;5034248;28;19905;-70
2022/06/16 02:22:46;;;;;;;;;;;21.40;44.80;;;;;;5036611;28;20035;-71
2022/06/16 02:25:12;;;;;;;;;;;21.40;44.70;;;;;;5042603;28;19915;-73
2022/06/16 02:27:37;;;;;;;;;;;21.40;44.30;;;;;;5049627;28;19931;-71
2022/06/16 02:30:03;;;;;;;;;;;21.30;45.20;;;;;;5053295;28;20362;-71
2022/06/16 02:32:37;;;;;;;;;;;21.30;45.20;;;;;;5053134;28;20386;-71
2022/06/16 02:35:22;;;;;;;;;;;21.30;45.40;;;;;;5053115;28;19912;-70
2022/06/16 02:37:50;;;;;;;;;;;21.30;45.60;;;;;;5051420;28;20400;-69
2022/06/16 02:40:19;;;;;;;;;;;21.40;44.90;;;;;;5050211;28;19908;-70
2022/06/16 02:43:03;;;;;;;;;;;21.40;45.60;;;;;;5054131;28;20362;-70
2022/06/16 02:45:28;;;;;;;;;;;21.40;46.40;;;;;;5054060;28;20405;-70
2022/06/16 02:47:57;;;;;;;;;;;21.40;45.40;;;;;;5042763;28;19909;-70
2022/06/16 02:50:42;;;;;;;;;;;21.30;45.60;;;;;;5033082;28;20414;-70
2022/06/16 02:53:13;;;;;;;;;;;21.30;45.40;;;;;;5035557;28;19912;-71
2022/06/16 02:55:41;;;;;;;;;;;21.30;44.70;;;;;;5035385;28;19905;-69
2022/06/16 02:58:07;;;;;;;;;;;21.20;45.10;;;;;;5033950;28;19943;-70
2022/06/16 03:00:38;;;;;;;;;;;21.20;45.50;;;;;;5033981;28;20018;-69
2022/06/16 03:03:15;;;;;;;;;;;21.10;45.40;;;;;;5033904;28;19909;-70
2022/06/16 03:05:41;;;;;;;;;;;21.10;45.90;;;;;;5039185;28;20375;-70
2022/06/16 03:08:06;;;;;;;;;;;21.10;45.20;;;;;;5033727;28;19986;-70
2022/06/16 03:13:16;;;;;;;;;;;21.10;45.50;;;;;;5034341;28;20051;-71
2022/06/16 03:15:41;;;;;;;;;;;21.10;45.70;;;;;;5033479;28;20415;-70
2022/06/16 03:18:07;;;;;;;;;;;21.10;45.80;;;;;;5034720;28;20000;-69
2022/06/16 03:20:33;;;;;;;;;;;21.10;45.60;;;;;;5034710;28;19998;-70
2022/06/16 03:22:58;;;;;;;;;;;21.10;46.10;;;;;;5034219;28;19951;-70
2022/06/16 03:25:24;;;;;;;;;;;21.10;46.10;;;;;;5034671;28;19913;-72
2022/06/16 03:27:50;;;;;;;;;;;21.20;46.10;;;;;;5034846;28;19925;-70
2022/06/16 03:30:15;;;;;;;;;;;21.20;46.00;;;;;;5034191;28;19916;-70
2022/06/16 03:32:41;;;;;;;;;;;21.30;46.00;;;;;;5034562;28;19909;-70
2022/06/16 03:35:07;;;;;;;;;;;21.30;46.10;;;;;;5034397;28;19992;-72
2022/06/16 03:37:32;;;;;;;;;;;21.30;45.90;;;;;;5034432;28;19911;-70
2022/06/16 03:39:59;;;;;;;;;;;21.40;46.00;;;;;;5034812;28;19959;-69
2022/06/16 03:42:25;;;;;;;;;;;21.50;46.30;;;;;;5034421;28;19911;-69
2022/06/16 03:44:50;;;;;;;;;;;21.60;45.90;;;;;;5034426;28;19974;-70
2022/06/16 03:47:16;;;;;;;;;;;21.60;45.90;;;;;;5034192;28;20275;-70
2022/06/16 03:49:42;;;;;;;;;;;21.70;45.90;;;;;;5032665;28;19963;-70
2022/06/16 03:52:08;;;;;;;;;;;21.80;45.90;;;;;;5034016;28;19944;-69
2022/06/16 03:54:33;;;;;;;;;;;21.80;46.00;;;;;;5034264;28;19905;-70
2022/06/16 03:56:59;;;;;;;;;;;21.90;45.80;;;;;;5034241;28;19917;-69
2022/06/16 03:59:24;;;;;;;;;;;21.80;45.80;;;;;;5034064;28;20331;-70
2022/06/16 04:01:50;;;;;;;;;;;21.80;45.60;;;;;;5034192;28;19909;-69
2022/06/16 04:04:15;;;;;;;;;;;21.70;46.60;;;;;;5034006;28;19905;-70
2022/06/16 04:06:41;;;;;;;;;;;21.70;46.20;;;;;;5034066;28;19906;-70
2022/06/16 04:09:06;;;;;;;;;;;21.70;46.00;;;;;;5033800;28;20431;-70
2022/06/16 04:11:32;;;;;;;;;;;21.70;46.40;;;;;;5033379;28;20011;-71
2022/06/16 04:14:00;;;;;;;;;;;21.70;46.60;;;;;;5033933;28;19905;-70
2022/06/16 04:16:26;;;;;;;;;;;21.80;47.00;;;;;;5033625;28;19959;-70
2022/06/16 04:18:52;;;;;;;;;;;21.80;47.10;;;;;;5033693;28;19928;-70
2022/06/16 04:21:17;;;;;;;;;;;21.90;46.20;;;;;;5043188;28;20358;-71
2022/06/16 04:23:43;;;;;;;;;;;21.90;46.00;;;;;;5053840;28;19942;-70
2022/06/16 04:26:08;;;;;;;;;;;21.90;46.60;;;;;;5053668;28;19917;-71
2022/06/16 04:28:34;;;;;;;;;;;21.90;46.30;;;;;;5053846;28;19908;-71
2022/06/16 04:30:59;;;;;;;;;;;21.90;46.80;;;;;;5057411;28;19917;-71
2022/06/16 04:33:25;;;;;;;;;;;21.90;46.70;;;;;;5057594;28;20302;-71
2022/06/16 04:35:52;;;;;;;;;;;22.00;47.30;;;;;;5056096;28;19905;-72
2022/06/16 04:38:18;;;;;;;;;;;21.90;46.90;;;;;;5056397;28;19928;-70
2022/06/16 04:40:44;;;;;;;;;;;22.00;47.00;;;;;;5057703;28;20350;-70
2022/06/16 04:43:10;;;;;;;;;;;22.10;47.10;;;;;;5057472;28;20410;-71
2022/06/16 04:45:37;;;;;;;;;;;22.10;47.10;;;;;;5056367;28;19909;-71
2022/06/16 04:48:03;;;;;;;;;;;22.30;47.00;;;;;;5053050;28;19917;-70
2022/06/16 04:50:28;;;;;;;;;;;22.30;46.40;;;;;;5044835;28;20317;-71
2022/06/16 04:52:54;;;;;;;;;;;22.30;46.60;;;;;;5041795;28;19909;-70
2022/06/16 04:55:20;;;;;;;;;;;22.40;46.50;;;;;;5037191;28;19904;-70
2022/06/16 04:57:46;;;;;;;;;;;22.30;46.70;;;;;;5037300;28;19959;-70
2022/06/16 05:00:13;;;;;;;;;;;22.30;47.20;;;;;;5037182;28;19905;-70
2022/06/16 05:02:39;;;;;;;;;;;22.40;47.00;;;;;;5037188;28;19952;-70
2022/06/16 05:05:05;;;;;;;;;;;22.40;47.20;;;;;;5035604;28;19909;-71
2022/06/16 05:07:30;;;;;;;;;;;22.40;46.80;;;;;;5042550;28;19944;-71
2022/06/16 05:09:56;;;;;;;;;;;22.40;46.90;;;;;;5057318;28;19972;-71
2022/06/16 05:12:21;;;;;;;;;;;22.50;47.30;;;;;;5052465;28;20374;-71
2022/06/16 05:14:47;;;;;;;;;;;22.50;47.50;;;;;;5036786;28;20408;-69
2022/06/16 05:17:12;;;;;;;;;;;22.60;46.80;;;;;;5036733;28;19958;-72
2022/06/16 05:19:38;;;;;;;;;;;22.70;46.80;;;;;;5036510;28;19905;-70
2022/06/16 05:22:05;;;;;;;;;;;22.70;46.90;;;;;;5037048;28;19959;-71
2022/06/16 05:24:31;;;;;;;;;;;22.80;46.70;;;;;;5050621;28;19909;-70
2022/06/16 05:26:57;;;;;;;;;;;22.80;46.70;;;;;;5053298;28;19927;-71
2022/06/16 05:29:23;;;;;;;;;;;22.80;47.20;;;;;;5056028;28;20018;-70
2022/06/16 05:31:49;;;;;;;;;;;22.90;46.60;;;;;;5055935;28;19917;-71
2022/06/16 05:34:14;;;;;;;;;;;23.00;46.80;;;;;;5052404;28;20426;-71
2022/06/16 05:36:40;;;;;;;;;;;23.00;46.40;;;;;;5043780;28;19905;-71
2022/06/16 05:39:06;;;;;;;;;;;23.10;46.20;;;;;;5043092;28;19904;-72
2022/06/16 05:41:32;;;;;;;;;;;23.10;46.30;;;;;;5035077;28;20386;-73
2022/06/16 05:43:57;;;;;;;;;;;23.10;46.20;;;;;;5036045;28;19905;-73
2022/06/16 05:46:23;;;;;;;;;;;23.10;46.00;;;;;;5054317;28;19943;-71
2022/06/16 05:48:50;;;;;;;;;;;23.10;46.10;;;;;;5055343;28;19913;-72
2022/06/16 05:51:16;;;;;;;;;;;23.10;45.60;;;;;;5055500;28;19909;-71
2022/06/16 05:53:41;;;;;;;;;;;23.10;45.60;;;;;;5054995;28;20274;-71
2022/06/16 05:56:07;;;;;;;;;;;23.10;45.70;;;;;;5047884;28;19904;-71
2022/06/16 05:58:33;;;;;;;;;;;23.00;45.80;;;;;;5044001;28;19968;-72
2022/06/16 06:00:59;;;;;;;;;;;23.10;45.70;;;;;;5043843;28;19904;-72
2022/06/16 06:03:25;;;;;;;;;;;23.10;45.60;;;;;;5043573;28;19913;-72
2022/06/16 06:05:51;;;;;;;;;;;23.20;45.50;;;;;;5041777;28;20321;-73
2022/06/16 06:16:38;;;;;;;;;;;23.30;45.00;;;;;;5034961;28;19912;-71
2022/06/16 06:19:23;;;;;;;;;;;23.30;45.00;;;;;;5034769;28;19905;-72
2022/06/16 06:22:00;;;;;;;;;;;23.30;44.90;;;;;;5035515;28;19915;-73
2022/06/16 06:24:27;;;;;;;;;;;23.40;44.90;;;;;;5033685;28;20003;-71
2022/06/16 06:26:53;;;;;;;;;;;23.40;44.70;;;;;;5033873;28;19923;-72
2022/06/16 06:29:19;;;;;;;;;;;23.40;45.00;;;;;;5034817;28;19920;-73
2022/06/16 06:31:44;;;;;;;;;;;23.30;45.00;;;;;;5035294;28;20343;-74
2022/06/16 06:34:10;;;;;;;;;;;23.40;45.00;;;;;;5035671;28;20000;-75
2022/06/16 06:36:35;;;;;;;;;;;23.30;44.80;;;;;;5035472;28;19928;-75
2022/06/16 06:39:01;;;;;;;;;;;23.30;44.80;;;;;;5034139;28;19909;-72
2022/06/16 06:41:26;;;;;;;;;;;23.40;44.60;;;;;;5034437;28;20000;-74
2022/06/16 06:43:52;;;;;;;;;;;23.30;44.80;;;;;;5035214;28;19905;-75
2022/06/16 06:46:18;;;;;;;;;;;23.30;44.50;;;;;;5035263;28;19920;-75
2022/06/16 06:48:44;;;;;;;;;;;23.20;44.60;;;;;;5033803;28;19905;-74
2022/06/16 06:51:10;;;;;;;;;;;23.20;44.70;;;;;;5035130;28;19916;-75
2022/06/16 06:53:35;;;;;;;;;;;23.30;44.60;;;;;;5034755;28;19909;-73
2022/06/16 06:56:01;;;;;;;;;;;23.30;44.50;;;;;;5034813;28;19912;-73
2022/06/16 06:58:26;;;;;;;;;;;23.30;44.50;;;;;;5035304;28;19915;-74
2022/06/16 07:00:56;;;;;;;;;;;23.40;44.40;;;;;;5035128;28;19959;-74
2022/06/16 07:03:21;;;;;;;;;;;23.40;44.10;;;;;;5034740;28;19905;-74
2022/06/16 07:05:47;;;;;;;;;;;23.40;44.20;;;;;;5034856;28;19912;-75
2022/06/16 07:08:13;;;;;;;;;;;23.50;44.20;;;;;;5034987;28;20263;-74
2022/06/16 07:10:40;;;;;;;;;;;23.50;44.10;;;;;;5034904;28;19916;-74
2022/06/16 07:13:06;;;;;;;;;;;22.70;43.60;;;;;;5034801;28;19916;-71
2022/06/16 07:15:31;;;;;;;;;;;23.50;43.90;;;;;;5034880;28;19905;-72
2022/06/16 07:17:57;;;;;;;;;;;23.60;43.90;;;;;;5034288;28;20372;-79
2022/06/16 07:20:22;;;;;;;;;;;23.60;43.90;;;;;;5033027;28;19940;-72
2022/06/16 07:22:48;;;;;;;;;;;23.70;43.90;;;;;;5034358;28;19920;-72
2022/06/16 07:25:14;;;;;;;;;;;23.70;43.80;;;;;;5034667;28;19905;-72
2022/06/16 07:27:40;;;;;;;;;;;23.70;43.80;;;;;;5034342;28;19925;-66
2022/06/16 07:30:13;;;;;;;;;;;23.80;43.80;;;;;;5034254;28;19916;-66
2022/06/16 07:32:39;;;;;;;;;;;23.80;43.70;;;;;;5034340;28;19909;-67
2022/06/16 07:35:06;;;;;;;;;;;23.80;43.80;;;;;;5033145;28;19987;-66
2022/06/16 07:37:32;;;;;;;;;;;23.80;43.80;;;;;;5034548;28;19912;-65
2022/06/16 07:39:57;;;;;;;;;;;23.80;43.80;;;;;;5034210;28;19959;-65
2022/06/16 07:42:23;;;;;;;;;;;23.90;43.90;;;;;;5034322;28;20407;-66
2022/06/16 07:44:48;;;;;;;;;;;23.90;44.10;;;;;;5034243;28;19966;-66
2022/06/16 07:47:14;;;;;;;;;;;23.80;43.90;;;;;;5034453;28;20298;-65
2022/06/16 07:49:39;;;;;;;;;;;23.90;44.00;;;;;;5033810;28;19924;-65
2022/06/16 07:52:05;;;;;;;;;;;23.90;44.00;;;;;;5034375;28;19909;-66
2022/06/16 07:54:31;;;;;;;;;;;23.90;43.80;;;;;;5034064;28;19952;-68
2022/06/16 07:56:56;;;;;;;;;;;23.90;43.70;;;;;;5033935;28;19909;-66
2022/06/16 07:59:22;;;;;;;;;;;23.90;43.70;;;;;;5033895;28;20266;-66
2022/06/16 08:01:48;;;;;;;;;;;24.00;43.70;;;;;;5033807;28;20295;-64
2022/06/16 08:04:13;;;;;;;;;;;24.00;43.50;;;;;;5032562;28;19905;-65
2022/06/16 08:06:39;;;;;;;;;;;24.00;43.50;;;;;;5033414;28;19928;-65
2022/06/16 08:09:05;;;;;;;;;;;24.10;43.50;;;;;;5033450;28;19939;-67
2022/06/16 08:14:15;;;;;;;;;;;24.10;43.40;;;;;;5033475;28;19912;-67
2022/06/16 08:16:41;;;;;;;;;;;24.10;43.60;;;;;;5033193;28;19905;-68
2022/06/16 08:19:07;;;;;;;;;;;24.10;43.20;;;;;;5033544;28;19905;-69
2022/06/16 08:21:33;;;;;;;;;;;24.10;43.10;;;;;;5033192;28;20254;-69
2022/06/16 08:23:58;;;;;;;;;;;24.10;43.00;;;;;;5033501;28;19912;-71
2022/06/16 08:26:24;;;;;;;;;;;24.10;42.90;;;;;;5033491;28;20004;-72
2022/06/16 08:28:51;;;;;;;;;;;24.10;42.70;;;;;;5033512;28;19924;-73
2022/06/16 08:31:20;;;;;;;;;;;24.20;42.70;;;;;;5033342;28;19912;-73
2022/06/16 08:33:46;;;;;;;;;;;24.20;42.80;;;;;;5033791;28;19906;-75
2022/06/16 08:36:12;;;;;;;;;;;24.10;42.80;;;;;;5033610;28;19905;-73
2022/06/16 08:38:37;;;;;;;;;;;24.20;42.70;;;;;;5033368;28;19905;-72
2022/06/16 08:41:15;;;;;;;;;;;24.20;42.70;;;;;;5033484;28;19909;-73
2022/06/16 08:43:40;;;;;;;;;;;24.20;42.80;;;;;;5033153;28;19945;-72
2022/06/16 08:46:06;;;;;;;;;;;24.20;42.60;;;;;;5033839;28;20347;-73
2022/06/16 08:49:04;;;;;;;;;;;24.20;42.50;;;;;;5033187;28;19909;-73
2022/06/16 08:51:33;;;;;;;;;;;24.20;42.60;;;;;;5031969;28;19976;-73
2022/06/16 08:53:58;;;;;;;;;;;24.20;41.60;;;;;;5033141;28;19948;-73
2022/06/16 08:56:33;;;;;;;;;;;24.20;41.20;;;;;;5033070;28;20275;-72
2022/06/16 08:59:17;;;;;;;;;;;24.20;42.10;;;;;;5033403;28;19951;-72
2022/06/16 09:02:03;;;;;;;;;;;24.20;42.40;;;;;;5033338;28;19905;-75
2022/06/16 09:04:44;;;;;;;;;;;24.30;42.10;;;;;;5032969;28;19905;-73
2022/06/16 09:07:28;;;;;;;;;;;24.40;41.90;;;;;;5033179;28;19905;-72
2022/06/16 09:10:14;;;;;;;;;;;24.40;41.80;;;;;;5033554;28;19920;-72
2022/06/16 09:12:43;;;;;;;;;;;24.50;41.90;;;;;;5033211;28;19955;-74
2022/06/16 09:15:28;;;;;;;;;;;24.60;41.70;;;;;;5033763;28;19992;-73
2022/06/16 09:18:09;;;;;;;;;;;24.70;41.70;;;;;;5036773;28;19943;-72
2022/06/16 09:20:38;;;;;;;;;;;24.70;40.70;;;;;;5036736;28;19958;-72
2022/06/16 09:23:23;;;;;;;;;;;24.70;41.00;;;;;;5035641;28;20008;-73
2022/06/16 09:25:54;;;;;;;;;;;24.70;40.60;;;;;;5035300;28;19905;-72
2022/06/16 09:28:28;;;;;;;;;;;24.60;40.90;;;;;;5036665;28;19909;-73
2022/06/16 09:30:54;;;;;;;;;;;24.70;41.10;;;;;;5036373;28;19940;-72
2022/06/16 09:33:23;;;;;;;;;;;24.80;41.20;;;;;;5036052;28;19912;-73
2022/06/16 09:35:54;;;;;;;;;;;24.80;41.30;;;;;;5036239;28;19905;-71
2022/06/16 09:38:39;;;;;;;;;;;24.90;41.20;;;;;;5036297;28;19940;-73
2022/06/16 09:44:10;;;;;;;;;;;25.10;40.70;;;;;;5036170;28;19915;-74
2022/06/16 09:46:38;;;;;;;;;;;25.10;40.80;;;;;;5036423;28;19911;-73
2022/06/16 09:49:08;;;;;;;;;;;25.10;40.50;;;;;;5036441;28;19914;-74
2022/06/16 09:51:39;;;;;;;;;;;25.10;40.50;;;;;;5036447;28;19951;-74
2022/06/16 09:54:10;;;;;;;;;;;25.10;41.00;;;;;;5036261;28;19909;-73
2022/06/16 09:56:41;;;;;;;;;;;25.10;40.60;;;;;;5036246;28;20367;-74
2022/06/16 09:59:09;;;;;;;;;;;25.20;40.80;;;;;;5035925;28;19909;-73
2022/06/16 10:01:44;;;;;;;;;;;25.20;40.90;;;;;;5036041;28;19951;-74
2022/06/16 10:04:10;;;;;;;;;;;25.20;40.90;;;;;;5035867;28;19995;-74
2022/06/16 10:06:48;;;;;;;;;;;25.30;40.80;;;;;;5035719;28;19959;-73
2022/06/16 10:09:27;;;;;;;;;;;25.30;40.70;;;;;;5035456;28;19959;-73
2022/06/16 10:11:52;;;;;;;;;;;25.30;40.50;;;;;;5035624;28;19983;-73
2022/06/16 10:14:47;;;;;;;;;;;25.30;40.40;;;;;;5036143;28;19999;-72
2022/06/16 10:17:15;;;;;;;;;;;25.30;40.60;;;;;;5033194;28;20000;-73
2022/06/16 10:19:45;;;;;;;;;;;25.30;40.60;;;;;;5035436;28;20251;-73
2022/06/16 10:22:13;;;;;;;;;;;25.40;40.70;;;;;;5035601;28;19928;-72
2022/06/16 10:24:58;;;;;;;;;;;25.40;40.50;;;;;;5035276;28;20381;-73
2022/06/16 10:27:26;;;;;;;;;;;25.40;40.60;;;;;;5034473;28;20015;-73
2022/06/16 10:29:53;;;;;;;;;;;25.50;40.60;;;;;;5035039;28;19920;-73
2022/06/16 10:32:34;;;;;;;;;;;25.50;40.60;;;;;;5035193;28;19905;-72
2022/06/16 10:35:00;;;;;;;;;;;25.60;40.40;;;;;;5035165;28;19909;-72
2022/06/16 10:37:27;;;;;;;;;;;25.60;39.80;;;;;;5035515;28;19905;-72
2022/06/16 10:40:01;;;;;;;;;;;25.70;40.00;;;;;;5035435;28;19905;-72
2022/06/16 10:42:32;;;;;;;;;;;25.70;40.00;;;;;;5035068;28;19979;-72
2022/06/16 10:44:59;;;;;;;;;;;25.70;40.20;;;;;;5035869;28;19928;-73
2022/06/16 10:47:32;;;;;;;;;;;25.70;39.90;;;;;;5035329;28;19928;-77
2022/06/16 10:49:57;;;;;;;;;;;25.60;39.40;;;;;;5033805;28;19962;-72
2022/06/16 10:52:31;;;;;;;;;;;25.70;39.80;;;;;;5034834;28;19945;-72
2022/06/16 10:55:08;;;;;;;;;;;25.70;40.10;;;;;;5034813;28;19909;-72
2022/06/16 10:57:41;;;;;;;;;;;25.70;40.10;;;;;;5035059;28;19964;-72
2022/06/16 11:00:11;;;;;;;;;;;25.80;39.90;;;;;;5035369;28;19912;-72
2022/06/16 11:02:50;;;;;;;;;;;25.80;40.00;;;;;;5034876;28;20351;-73
2022/06/16 11:05:17;;;;;;;;;;;25.90;40.00;;;;;;5034702;28;19966;-72
2022/06/16 11:07:44;;;;;;;;;;;25.90;39.60;;;;;;5034292;28;20271;-73
2022/06/16 11:10:12;;;;;;;;;;;26.00;39.60;;;;;;5034629;28;19920;-73
2022/06/16 11:12:40;;;;;;;;;;;26.00;39.50;;;;;;5034380;28;19905;-73
2022/06/16 11:15:25;;;;;;;;;;;25.90;39.20;;;;;;5034570;28;19912;-73
2022/06/16 11:17:54;;;;;;;;;;;25.90;38.70;;;;;;5034046;28;19912;-74
2022/06/16 11:20:19;;;;;;;;;;;25.90;39.30;;;;;;5034431;28;20423;-72
2022/06/16 11:22:47;;;;;;;;;;;25.90;39.50;;;;;;5033316;28;19971;-73
2022/06/16 11:25:22;;;;;;;;;;;25.80;39.40;;;;;;5034652;28;19909;-73
2022/06/16 11:27:56;;;;;;;;;;;25.90;39.60;;;;;;5034563;28;19925;-70
2022/06/16 11:30:27;;;;;;;;;;;25.90;38.70;;;;;;5034157;28;19913;-73
2022/06/16 11:32:53;;;;;;;;;;;26.00;38.80;;;;;;5034258;28;19905;-72
2022/06/16 11:35:20;;;;;;;;;;;26.00;39.00;;;;;;5034185;28;19912;-72
2022/06/16 11:37:45;;;;;;;;;;;26.10;39.10;;;;;;5033905;28;20295;-73
2022/06/16 11:40:11;;;;;;;;;;;26.20;39.10;;;;;;5034264;28;19906;-73
2022/06/16 11:42:55;;;;;;;;;;;26.20;39.20;;;;;;5034271;28;19909;-74
2022/06/16 11:45:23;;;;;;;;;;;26.20;39.20;;;;;;5034399;28;19920;-73
2022/06/16 11:47:54;;;;;;;;;;;26.30;39.10;;;;;;5034275;28;19909;-73
2022/06/16 11:50:20;;;;;;;;;;;26.30;39.10;;;;;;5034188;28;19913;-72
2022/06/16 11:52:49;;;;;;;;;;;26.20;39.30;;;;;;5034308;28;19912;-72
2022/06/16 11:55:23;;;;;;;;;;;26.30;39.10;;;;;;5034002;28;19932;-72
2022/06/16 11:57:52;;;;;;;;;;;26.30;39.30;;;;;;5033774;28;20347;-73
2022/06/16 12:00:18;;;;;;;;;;;26.40;39.40;;;;;;5033953;28;19905;-72
2022/06/16 12:02:46;;;;;;;;;;;26.50;39.40;;;;;;5034104;28;20351;-73
2022/06/16 12:05:33;;;;;;;;;;;26.60;39.50;;;;;;5034081;28;19905;-72
2022/06/16 12:08:04;;;;;;;;;;;26.70;39.50;;;;;;5033919;28;19905;-72
2022/06/16 12:10:30;;;;;;;;;;;26.90;39.50;;;;;;5033603;28;19913;-72
2022/06/16 12:13:05;;;;;;;;;;;27.00;39.50;;;;;;5034001;28;20023;-74
2022/06/16 12:15:34;;;;;;;;;;;27.10;39.00;;;;;;5034322;28;19905;-72
2022/06/16 12:18:04;;;;;;;;;;;27.20;39.10;;;;;;5033763;28;19909;-72
2022/06/16 12:20:33;;;;;;;;;;;27.30;39.00;;;;;;5033656;28;19908;-74
2022/06/16 12:23:01;;;;;;;;;;;27.40;39.00;;;;;;5034081;28;19905;-72
2022/06/16 12:25:26;;;;;;;;;;;27.50;39.10;;;;;;5033894;28;20228;-75
2022/06/16 12:28:09;;;;;;;;;;;27.70;39.10;;;;;;5033625;28;19921;-73
2022/06/16 12:30:40;;;;;;;;;;;27.80;38.80;;;;;;5033512;28;20015;-73
2022/06/16 12:33:25;;;;;;;;;;;27.80;38.50;;;;;;5033504;28;19905;-73
2022/06/16 12:35:53;;;;;;;;;;;27.90;38.30;;;;;;5033875;28;20271;-73
2022/06/16 12:38:18;;;;;;;;;;;27.90;37.60;;;;;;5033556;28;19905;-72
2022/06/16 12:40:47;;;;;;;;;;;27.90;37.70;;;;;;5033638;28;19952;-73
2022/06/16 12:43:17;;;;;;;;;;;27.80;37.60;;;;;;5033290;28;19905;-72
2022/06/16 12:45:45;;;;;;;;;;;27.80;37.50;;;;;;5033662;28;19948;-72
2022/06/16 12:48:23;;;;;;;;;;;27.70;37.30;;;;;;5033423;28;19905;-72
2022/06/16 12:50:50;;;;;;;;;;;27.60;36.90;;;;;;5035427;28;19912;-72
2022/06/16 12:53:27;;;;;;;;;;;27.50;37.00;;;;;;5037182;28;19909;-72
2022/06/16 12:55:52;;;;;;;;;;;27.30;37.10;;;;;;5036982;28;19916;-73
2022/06/16 12:58:22;;;;;;;;;;;27.30;37.40;;;;;;5037363;28;19905;-72
2022/06/16 13:00:52;;;;;;;;;;;27.20;37.50;;;;;;5037144;28;19912;-73
2022/06/16 13:03:18;;;;;;;;;;;27.20;37.80;;;;;;5036891;28;20355;-73
2022/06/16 13:05:44;;;;;;;;;;;27.10;37.20;;;;;;5037128;28;19959;-73
2022/06/16 13:08:10;;;;;;;;;;;27.10;37.70;;;;;;5036785;28;20363;-73
2022/06/16 13:10:38;;;;;;;;;;;27.10;37.20;;;;;;5035547;28;20348;-72
2022/06/16 13:13:04;;;;;;;;;;;27.10;37.50;;;;;;5037017;28;19905;-72
2022/06/16 13:15:32;;;;;;;;;;;27.30;37.60;;;;;;5036900;28;19905;-73
2022/06/16 13:18:01;;;;;;;;;;;27.50;37.50;;;;;;5037077;28;19905;-73
2022/06/16 13:20:29;;;;;;;;;;;27.60;37.40;;;;;;5036636;28;19905;-72
2022/06/16 13:22:56;;;;;;;;;;;27.60;37.00;;;;;;5035591;28;20346;-72
2022/06/16 13:25:43;;;;;;;;;;;27.60;37.10;;;;;;5036551;28;20247;-71
2022/06/16 13:28:30;;;;;;;;;;;27.60;36.90;;;;;;5036875;28;20387;-73
2022/06/16 13:31:18;;;;;;;;;;;27.60;37.00;;;;;;5036229;28;19920;-72
2022/06/16 13:33:43;;;;;;;;;;;27.60;37.20;;;;;;5036675;28;19913;-73
2022/06/16 13:36:29;;;;;;;;;;;27.60;37.30;;;;;;5036482;28;19905;-74
2022/06/16 13:38:54;;;;;;;;;;;27.60;37.10;;;;;;5036387;28;19931;-73
2022/06/16 13:41:31;;;;;;;;;;;27.70;37.10;;;;;;5036274;28;19905;-72
2022/06/16 13:44:06;;;;;;;;;;;27.70;37.20;;;;;;5036249;28;19916;-73
2022/06/16 13:46:46;;;;;;;;;;;27.70;37.10;;;;;;5036380;28;19905;-73
2022/06/16 13:49:24;;;;;;;;;;;27.70;37.10;;;;;;5036098;28;19971;-72
2022/06/16 13:51:50;;;;;;;;;;;27.80;36.90;;;;;;5036214;28;19905;-72
2022/06/16 13:54:16;;;;;;;;;;;27.90;36.60;;;;;;5036498;28;19909;-72
2022/06/16 13:56:43;;;;;;;;;;;27.90;36.50;;;;;;5036678;28;19905;-73
2022/06/16 13:59:12;;;;;;;;;;;28.00;36.40;;;;;;5035898;28;19904;-73
2022/06/16 14:02:06;;;;;;;;;;;28.10;36.40;;;;;;5034850;28;19916;-73
2022/06/16 14:04:34;;;;;;;;;;;28.30;37.10;;;;;;5035434;28;19905;-73
2022/06/16 14:07:00;;;;;;;;;;;28.30;36.00;;;;;;5035683;28;19963;-73
2022/06/16 14:09:44;;;;;;;;;;;28.30;36.20;;;;;;5035733;28;19961;-73
2022/06/16 14:12:11;;;;;;;;;;;28.30;35.80;;;;;;5035858;28;19916;-71
2022/06/16 14:14:55;;;;;;;;;;;28.40;35.80;;;;;;5035902;28;19916;-73
2022/06/16 14:17:36;;;;;;;;;;;28.40;35.60;;;;;;5035943;28;19905;-73
2022/06/16 14:20:20;;;;;;;;;;;28.50;35.80;;;;;;5036068;28;19912;-72
2022/06/16 14:22:48;;;;;;;;;;;28.60;35.60;;;;;;5035539;28;19905;-73
2022/06/16 14:25:16;;;;;;;;;;;28.70;35.60;;;;;;5034303;28;19909;-73
2022/06/16 14:27:49;;;;;;;;;;;28.90;36.10;;;;;;5035549;28;19921;-73
2022/06/16 14:30:19;;;;;;;;;;;29.40;36.40;;;;;;5035519;28;19913;-72
2022/06/16 14:32:49;;;;;;;;;;;30.30;36.70;;;;;;5035929;28;20414;-74
2022/06/16 14:35:21;;;;;;;;;;;31.50;37.20;;;;;;5035248;28;19912;-73
2022/06/16 14:38:13;;;;;;;;;;;32.70;36.60;;;;;;5033671;28;20421;-73
2022/06/16 14:40:44;;;;;;;;;;;33.90;36.00;;;;;;5035343;28;20327;-73
2022/06/16 14:43:11;;;;;;;;;;;35.20;35.60;;;;;;5035345;28;19905;-73
2022/06/16 14:45:43;;;;;;;;;;;36.20;34.90;;;;;;5034996;28;20068;-73
2022/06/16 14:48:14;;;;;;;;;;;36.90;34.90;;;;;;5035038;28;19963;-74
2022/06/16 14:50:44;;;;;;;;;;;37.30;34.40;;;;;;5035176;28;20023;-74